createdAt,value
2022-11-30T00:01:08.500Z,8.14
2022-11-30T00:03:35.008Z,8.11
2022-11-30T00:06:09.513Z,8.10
2022-11-30T00:08:36.396Z,8.12
2022-11-30T00:11:14.963Z,8.11
2022-11-30T00:13:42.081Z,8.10
2022-11-30T00:16:09.039Z,8.11
2022-11-30T00:18:36.107Z,8.10
2022-11-30T00:21:04.729Z,8.09
2022-11-30T00:23:36.486Z,8.07
2022-11-30T00:26:04.288Z,8.10
2022-11-30T00:28:34.865Z,8.07
2022-11-30T00:31:06.032Z,8.07
2022-11-30T00:33:34.287Z,8.06
2022-11-30T00:36:12.815Z,8.04
2022-11-30T00:38:40.022Z,8.03
2022-11-30T00:41:06.952Z,8.03
2022-11-30T00:43:33.649Z,8.04
2022-11-30T00:46:00.446Z,8.03
2022-11-30T00:48:26.914Z,8.02
2022-11-30T00:50:53.724Z,8.00
2022-11-30T00:53:20.987Z,7.98
2022-11-30T00:55:48.193Z,8.00
2022-11-30T00:58:15.060Z,7.96
2022-11-30T01:00:42.102Z,7.95
2022-11-30T01:03:09.497Z,7.88
2022-11-30T01:05:36.529Z,7.82
2022-11-30T01:08:08.621Z,7.81
2022-11-30T01:10:36.560Z,7.75
2022-11-30T01:13:04.196Z,7.71
2022-11-30T01:15:31.565Z,7.69
2022-11-30T01:18:01.105Z,7.69
2022-11-30T01:20:27.556Z,7.66
2022-11-30T01:22:55.340Z,7.67
2022-11-30T01:25:21.899Z,7.67
2022-11-30T01:27:49.300Z,7.66
2022-11-30T01:30:16.207Z,7.65
2022-11-30T01:32:43.014Z,7.66
2022-11-30T01:35:10.317Z,7.68
2022-11-30T01:37:36.775Z,7.64
2022-11-30T01:40:04.250Z,7.65
2022-11-30T01:42:32.871Z,7.64
2022-11-30T01:45:02.319Z,7.62
2022-11-30T01:47:37.473Z,7.57
2022-11-30T01:50:11.627Z,7.58
2022-11-30T01:52:43.146Z,7.56
2022-11-30T01:55:27.229Z,7.55
2022-11-30T01:58:01.865Z,7.53
2022-11-30T02:00:28.915Z,7.56
2022-11-30T02:03:17.817Z,7.55
2022-11-30T02:05:44.369Z,7.56
2022-11-30T02:08:11.374Z,7.54
2022-11-30T02:10:41.880Z,7.54
2022-11-30T02:13:26.698Z,7.53
2022-11-30T02:16:19.321Z,7.55
2022-11-30T02:19:05.943Z,7.55
2022-11-30T02:21:46.242Z,7.52
2022-11-30T02:24:21.785Z,7.53
2022-11-30T02:27:03.569Z,7.51
2022-11-30T02:29:48.588Z,7.48
2022-11-30T02:32:29.554Z,7.49
2022-11-30T02:35:00.505Z,7.46
2022-11-30T02:37:28.865Z,7.45
2022-11-30T02:39:55.402Z,7.40
2022-11-30T02:42:21.869Z,7.40
2022-11-30T02:44:51.480Z,7.40
2022-11-30T02:47:31.418Z,7.38
2022-11-30T02:50:04.821Z,7.37
2022-11-30T02:52:32.516Z,7.35
2022-11-30T02:55:10.153Z,7.33
2022-11-30T02:57:36.951Z,7.31
2022-11-30T03:00:08.751Z,7.28
2022-11-30T03:02:35.337Z,7.29
2022-11-30T03:05:01.835Z,7.26
2022-11-30T03:07:28.318Z,7.26
2022-11-30T03:09:54.756Z,7.24
2022-11-30T03:12:21.260Z,7.25
2022-11-30T03:14:48.051Z,7.25
2022-11-30T03:17:14.731Z,7.21
2022-11-30T03:19:41.200Z,7.19
2022-11-30T03:22:08.098Z,7.21
2022-11-30T03:24:34.697Z,7.19
2022-11-30T03:27:01.119Z,7.19
2022-11-30T03:29:27.593Z,7.18
2022-11-30T03:31:54.031Z,7.20
2022-11-30T03:34:20.550Z,7.17
2022-11-30T03:36:47.001Z,7.18
2022-11-30T03:39:13.524Z,7.16
2022-11-30T03:41:39.984Z,7.16
2022-11-30T03:44:06.487Z,7.14
2022-11-30T03:46:34.099Z,7.13
2022-11-30T03:49:00.589Z,7.14
2022-11-30T03:51:27.038Z,7.15
2022-11-30T03:53:53.508Z,7.14
2022-11-30T03:56:20.049Z,7.13
2022-11-30T03:58:46.554Z,7.13
2022-11-30T04:01:16.130Z,7.12
2022-11-30T04:03:43.428Z,7.11
2022-11-30T04:06:12.047Z,7.14
2022-11-30T04:08:39.247Z,7.12
2022-11-30T04:11:06.780Z,7.14
2022-11-30T04:13:35.262Z,7.13
2022-11-30T04:16:02.582Z,7.11
2022-11-30T04:18:30.853Z,7.09
2022-11-30T04:20:59.298Z,7.07
2022-11-30T04:23:28.925Z,7.02
2022-11-30T04:25:56.373Z,6.98
2022-11-30T04:28:22.860Z,6.93
2022-11-30T04:30:49.340Z,6.87
2022-11-30T04:33:16.392Z,6.86
2022-11-30T04:35:47.039Z,6.87
2022-11-30T04:38:13.561Z,6.83
2022-11-30T04:40:43.784Z,6.80
2022-11-30T04:43:11.686Z,6.78
2022-11-30T04:45:38.501Z,6.76
2022-11-30T04:48:05.997Z,6.76
2022-11-30T04:50:32.559Z,6.80
2022-11-30T04:52:59.060Z,6.80
2022-11-30T04:55:25.548Z,6.81
2022-11-30T04:57:52.405Z,6.81
2022-11-30T05:00:19.631Z,6.74
2022-11-30T05:02:52.162Z,6.73
2022-11-30T05:05:19.721Z,6.73
2022-11-30T05:07:55.825Z,6.71
2022-11-30T05:10:22.326Z,6.72
2022-11-30T05:12:50.176Z,6.71
2022-11-30T05:15:17.378Z,6.71
2022-11-30T05:17:43.860Z,6.70
2022-11-30T05:20:10.716Z,6.67
2022-11-30T05:22:37.148Z,6.66
2022-11-30T05:25:03.765Z,6.65
2022-11-30T05:27:30.405Z,6.62
2022-11-30T05:29:56.920Z,6.59
2022-11-30T05:32:23.318Z,6.57
2022-11-30T05:34:51.638Z,6.56
2022-11-30T05:37:19.239Z,6.52
2022-11-30T05:39:45.705Z,6.51
2022-11-30T05:42:12.165Z,6.46
2022-11-30T05:44:38.620Z,6.49
2022-11-30T05:47:05.238Z,6.45
2022-11-30T05:49:31.803Z,6.45
2022-11-30T05:51:58.286Z,6.42
2022-11-30T05:54:24.767Z,6.44
2022-11-30T05:56:54.706Z,6.41
2022-11-30T05:59:22.454Z,6.37
2022-11-30T06:01:49.291Z,6.37
2022-11-30T06:04:15.831Z,6.34
2022-11-30T06:06:42.307Z,6.32
2022-11-30T06:09:08.864Z,6.29
2022-11-30T06:11:35.341Z,6.28
2022-11-30T06:14:02.002Z,6.28
2022-11-30T06:16:28.532Z,6.26
2022-11-30T06:18:55.059Z,6.25
2022-11-30T06:21:24.629Z,6.20
2022-11-30T06:23:52.000Z,6.16
2022-11-30T06:26:18.477Z,6.10
2022-11-30T06:28:48.201Z,6.02
2022-11-30T06:31:16.435Z,5.96
2022-11-30T06:33:43.393Z,5.89
2022-11-30T06:36:10.437Z,5.84
2022-11-30T06:38:38.188Z,5.77
2022-11-30T06:41:06.669Z,5.72
2022-11-30T06:43:38.064Z,5.68
2022-11-30T06:46:05.904Z,5.60
2022-11-30T06:48:33.072Z,5.61
2022-11-30T06:51:00.543Z,5.55
2022-11-30T06:53:27.370Z,5.46
2022-11-30T06:55:53.844Z,5.37
2022-11-30T06:58:20.285Z,5.34
2022-11-30T07:00:46.823Z,5.27
2022-11-30T07:03:13.757Z,5.21
2022-11-30T07:05:45.797Z,5.18
2022-11-30T07:08:14.229Z,5.09
2022-11-30T07:10:42.416Z,5.06
2022-11-30T07:13:13.821Z,4.99
2022-11-30T07:15:41.673Z,4.98
2022-11-30T07:18:09.253Z,4.97
2022-11-30T07:20:36.892Z,4.91
2022-11-30T07:23:22.270Z,4.88
2022-11-30T07:26:08.073Z,4.84
2022-11-30T07:28:39.179Z,4.80
2022-11-30T07:31:26.699Z,4.78
2022-11-30T07:33:54.517Z,4.81
2022-11-30T07:36:22.864Z,4.81
2022-11-30T07:38:49.963Z,4.80
2022-11-30T07:41:16.476Z,4.78
2022-11-30T07:43:43.297Z,4.81
2022-11-30T07:46:15.347Z,4.79
2022-11-30T07:48:42.728Z,4.81
2022-11-30T07:51:27.175Z,4.80
2022-11-30T07:53:56.479Z,4.81
2022-11-30T07:56:23.835Z,4.84
2022-11-30T07:58:53.226Z,4.85
2022-11-30T08:01:22.443Z,4.87
2022-11-30T08:03:50.633Z,4.88
2022-11-30T08:06:22.294Z,4.93
2022-11-30T08:08:50.951Z,4.93
2022-11-30T08:11:20.059Z,4.99
2022-11-30T08:13:46.662Z,5.03
2022-11-30T08:16:16.250Z,5.06
2022-11-30T08:18:43.112Z,5.05
2022-11-30T08:21:13.607Z,5.04
2022-11-30T08:23:45.371Z,5.06
2022-11-30T08:26:15.387Z,5.06
2022-11-30T08:28:43.484Z,5.04
2022-11-30T08:31:16.858Z,5.04
2022-11-30T08:33:44.015Z,5.10
2022-11-30T08:36:13.636Z,5.16
2022-11-30T08:38:41.448Z,5.25
2022-11-30T08:41:09.799Z,5.30
2022-11-30T08:43:36.391Z,5.42
2022-11-30T08:46:21.207Z,5.47
2022-11-30T08:48:53.293Z,5.59
2022-11-30T08:51:42.168Z,5.60
2022-11-30T08:54:15.536Z,5.70
2022-11-30T08:56:41.959Z,5.74
2022-11-30T08:59:08.452Z,5.83
2022-11-30T09:01:34.949Z,5.89
2022-11-30T09:04:01.674Z,6.00
2022-11-30T09:06:30.075Z,6.05
2022-11-30T09:08:58.644Z,6.13
2022-11-30T09:11:31.025Z,6.26
2022-11-30T09:14:01.252Z,6.34
2022-11-30T09:16:28.067Z,6.44
2022-11-30T09:18:54.706Z,6.50
2022-11-30T09:21:24.011Z,6.54
2022-11-30T09:23:51.257Z,6.58
2022-11-30T09:26:20.271Z,6.67
2022-11-30T09:28:47.920Z,6.74
2022-11-30T09:31:20.098Z,6.84
2022-11-30T09:33:47.431Z,6.91
2022-11-30T09:36:16.465Z,6.97
2022-11-30T09:38:43.195Z,7.03
2022-11-30T09:41:46.408Z,7.07
2022-11-30T09:44:15.866Z,7.11
2022-11-30T09:47:15.289Z,7.12
2022-11-30T09:49:44.628Z,7.15
2022-11-30T09:52:34.608Z,7.18
2022-11-30T09:55:07.429Z,7.14
2022-11-30T09:57:54.255Z,7.13
2022-11-30T10:00:23.012Z,7.17
2022-11-30T10:02:51.480Z,7.29
2022-11-30T10:05:21.462Z,7.40
2022-11-30T10:08:03.059Z,7.45
2022-11-30T10:10:58.587Z,7.45
2022-11-30T10:13:52.514Z,7.44
2022-11-30T10:16:31.498Z,7.47
2022-11-30T10:19:03.035Z,7.51
2022-11-30T10:21:48.313Z,7.54
2022-11-30T10:24:20.846Z,7.59
2022-11-30T10:26:56.244Z,7.63
2022-11-30T10:29:35.158Z,7.74
2022-11-30T10:32:13.257Z,7.83
2022-11-30T10:34:41.222Z,7.84
2022-11-30T10:37:26.497Z,7.86
2022-11-30T10:39:52.993Z,7.89
2022-11-30T10:42:26.366Z,7.93
2022-11-30T10:45:01.695Z,8.03
2022-11-30T10:47:36.971Z,8.20
2022-11-30T10:50:05.648Z,8.31
2022-11-30T10:52:38.077Z,8.46
2022-11-30T10:55:14.917Z,8.58
2022-11-30T10:57:42.427Z,8.71
2022-11-30T11:00:14.642Z,8.65
2022-11-30T11:02:52.066Z,8.73
2022-11-30T11:05:27.394Z,8.85
2022-11-30T11:08:06.801Z,8.74
2022-11-30T11:10:47.689Z,8.68
2022-11-30T11:13:18.672Z,8.63
2022-11-30T11:16:02.581Z,8.54
2022-11-30T11:18:34.145Z,8.51
2022-11-30T11:21:20.093Z,8.54
2022-11-30T11:23:48.949Z,8.57
2022-11-30T11:26:27.145Z,8.55
2022-11-30T11:28:56.220Z,8.66
2022-11-30T11:31:46.180Z,8.68
2022-11-30T11:34:34.422Z,8.65
2022-11-30T11:37:07.171Z,8.57
2022-11-30T11:39:33.876Z,8.55
2022-11-30T11:42:00.787Z,8.59
2022-11-30T11:44:28.216Z,8.51
2022-11-30T11:47:44.934Z,8.45
2022-11-30T11:51:04.853Z,8.46
2022-11-30T11:53:25.247Z,8.57
2022-11-30T11:56:07.963Z,8.58
2022-11-30T11:58:43.512Z,8.56
2022-11-30T12:01:44.944Z,8.46
2022-11-30T12:04:39.852Z,8.64
2022-11-30T12:07:18.552Z,8.75
2022-11-30T12:09:59.496Z,8.76
2022-11-30T12:12:26.004Z,8.66
2022-11-30T12:14:53.814Z,8.68
2022-11-30T12:17:34.461Z,8.60
2022-11-30T12:20:16.271Z,8.49
2022-11-30T12:23:17.863Z,8.44
2022-11-30T12:25:56.262Z,8.32
2022-11-30T12:28:40.514Z,8.26
2022-11-30T12:31:14.968Z,8.32
2022-11-30T12:33:58.320Z,8.38
2022-11-30T12:36:38.994Z,8.57
2022-11-30T12:39:15.686Z,8.79
2022-11-30T12:41:51.385Z,8.83
2022-11-30T12:44:30.231Z,8.81
2022-11-30T12:47:00.587Z,8.60
2022-11-30T12:49:43.338Z,8.48
2022-11-30T12:52:36.260Z,8.33
2022-11-30T12:55:18.201Z,8.26
2022-11-30T12:57:59.635Z,8.18
2022-11-30T13:00:34.398Z,8.13
2022-11-30T13:03:27.324Z,8.18
2022-11-30T13:06:00.053Z,8.23
2022-11-30T13:08:42.754Z,8.22
2022-11-30T13:11:18.132Z,8.19
2022-11-30T13:13:55.748Z,8.10
2022-11-30T13:16:24.686Z,8.07
2022-11-30T13:18:52.766Z,8.06
2022-11-30T13:21:30.717Z,8.03
2022-11-30T13:24:12.755Z,8.03
2022-11-30T13:27:00.715Z,8.03
2022-11-30T13:29:54.913Z,7.93
2022-11-30T13:32:56.092Z,7.78
2022-11-30T13:35:30.302Z,7.75
2022-11-30T13:38:35.788Z,7.88
2022-11-30T13:41:05.619Z,7.99
2022-11-30T13:43:45.372Z,8.15
2022-11-30T13:46:15.797Z,8.24
2022-11-30T13:48:44.869Z,8.22
2022-11-30T13:51:12.564Z,8.16
2022-11-30T13:53:40.139Z,8.10
2022-11-30T13:56:34.019Z,8.04
2022-11-30T13:59:25.192Z,7.94
2022-11-30T14:01:53.210Z,7.93
2022-11-30T14:04:19.704Z,7.91
2022-11-30T14:06:50.011Z,7.85
2022-11-30T14:09:42.000Z,7.85
2022-11-30T14:12:34.563Z,7.84
2022-11-30T14:15:02.484Z,7.85
2022-11-30T14:17:35.615Z,7.82
2022-11-30T14:20:19.004Z,7.77
2022-11-30T14:22:45.558Z,7.77
2022-11-30T14:25:18.583Z,7.76
2022-11-30T14:27:45.577Z,7.68
2022-11-30T14:30:20.981Z,7.64
2022-11-30T14:33:02.743Z,7.55
2022-11-30T14:35:31.099Z,7.52
2022-11-30T14:38:00.318Z,7.48
2022-11-30T14:40:30.316Z,7.45
2022-11-30T14:42:59.693Z,7.49
2022-11-30T14:45:29.157Z,7.50
2022-11-30T14:48:17.786Z,7.47
2022-11-30T14:50:51.654Z,7.36
2022-11-30T14:53:18.132Z,7.28
2022-11-30T14:56:22.187Z,7.22
2022-11-30T14:58:53.657Z,7.12
2022-11-30T15:01:24.020Z,7.04
2022-11-30T15:03:53.503Z,7.01
2022-11-30T15:06:29.316Z,6.93
2022-11-30T15:08:58.064Z,6.88
2022-11-30T15:11:25.113Z,6.81
2022-11-30T15:13:56.927Z,6.75
2022-11-30T15:16:30.478Z,6.65
2022-11-30T15:18:59.348Z,6.58
2022-11-30T15:21:30.862Z,6.50
2022-11-30T15:24:00.140Z,6.42
2022-11-30T15:26:39.308Z,6.34
2022-11-30T15:29:12.553Z,6.31
2022-11-30T15:31:45.514Z,6.28
2022-11-30T15:34:21.097Z,6.25
2022-11-30T15:36:47.897Z,6.23
2022-11-30T15:39:20.864Z,6.23
2022-11-30T15:41:52.688Z,6.19
2022-11-30T15:44:23.792Z,6.18
2022-11-30T15:46:59.676Z,6.15
2022-11-30T15:49:31.310Z,6.12
2022-11-30T15:52:02.162Z,5.99
2022-11-30T15:54:55.880Z,5.89
2022-11-30T15:57:25.077Z,5.89
2022-11-30T16:00:13.285Z,5.96
2022-11-30T16:02:40.044Z,5.98
2022-11-30T16:05:22.048Z,5.99
2022-11-30T16:07:59.412Z,5.99
2022-11-30T16:10:29.870Z,6.00
2022-11-30T16:12:56.747Z,6.06
2022-11-30T16:15:29.467Z,6.11
2022-11-30T16:17:59.301Z,6.12
2022-11-30T16:20:25.775Z,6.15
2022-11-30T16:22:52.355Z,6.18
2022-11-30T16:25:24.942Z,6.18
2022-11-30T16:27:52.262Z,6.21
2022-11-30T16:30:23.448Z,6.21
2022-11-30T16:32:50.355Z,6.26
2022-11-30T16:35:27.780Z,6.28
2022-11-30T16:37:54.281Z,6.34
2022-11-30T16:40:21.239Z,6.37
2022-11-30T16:42:53.236Z,6.40
2022-11-30T16:45:22.471Z,6.37
2022-11-30T16:47:49.988Z,6.45
2022-11-30T16:50:17.208Z,6.48
2022-11-30T16:52:43.691Z,6.48
2022-11-30T16:55:14.053Z,6.47
2022-11-30T16:57:40.656Z,6.42
2022-11-30T17:00:08.574Z,6.39
2022-11-30T17:02:37.580Z,6.31
2022-11-30T17:05:04.679Z,6.24
2022-11-30T17:07:31.552Z,6.20
2022-11-30T17:09:58.030Z,6.13
2022-11-30T17:12:24.506Z,6.06
2022-11-30T17:14:51.426Z,6.00
2022-11-30T17:17:17.866Z,5.99
2022-11-30T17:19:44.373Z,5.94
2022-11-30T17:22:10.827Z,5.89
2022-11-30T17:24:37.331Z,5.86
2022-11-30T17:27:05.667Z,5.80
2022-11-30T17:29:32.235Z,5.73
2022-11-30T17:31:58.697Z,5.63
2022-11-30T17:34:25.113Z,5.54
2022-11-30T17:36:56.233Z,5.44
2022-11-30T17:39:23.823Z,5.40
2022-11-30T17:41:50.828Z,5.34
2022-11-30T17:44:17.657Z,5.28
2022-11-30T17:46:47.973Z,5.22
2022-11-30T17:49:15.048Z,5.22
2022-11-30T17:51:41.505Z,5.22
2022-11-30T17:54:07.983Z,5.14
2022-11-30T17:56:35.796Z,5.09
2022-11-30T17:59:02.368Z,5.07
2022-11-30T18:01:28.917Z,5.01
2022-11-30T18:03:56.196Z,4.95
2022-11-30T18:06:22.671Z,4.92
2022-11-30T18:08:49.222Z,4.87
2022-11-30T18:11:21.793Z,4.76
2022-11-30T18:13:54.118Z,4.69
2022-11-30T18:16:26.105Z,4.65
2022-11-30T18:18:53.293Z,4.57
2022-11-30T18:21:22.326Z,4.51
2022-11-30T18:23:49.309Z,4.44
2022-11-30T18:26:21.433Z,4.39
2022-11-30T18:28:55.639Z,4.37
2022-11-30T18:31:22.521Z,4.30
2022-11-30T18:33:49.089Z,4.30
2022-11-30T18:36:15.542Z,4.23
2022-11-30T18:38:41.999Z,4.22
2022-11-30T18:41:08.491Z,4.21
2022-11-30T18:43:34.978Z,4.21
2022-11-30T18:46:09.683Z,4.22
2022-11-30T18:48:37.139Z,4.24
2022-11-30T18:51:11.919Z,4.24
2022-11-30T18:53:38.479Z,4.24
2022-11-30T18:56:13.675Z,4.23
2022-11-30T18:58:41.307Z,4.26
2022-11-30T19:01:14.823Z,4.28
2022-11-30T19:03:42.142Z,4.33
2022-11-30T19:06:10.229Z,4.36
2022-11-30T19:08:38.579Z,4.44
2022-11-30T19:11:07.102Z,4.56
2022-11-30T19:13:34.135Z,4.62
2022-11-30T19:16:05.072Z,4.68
2022-11-30T19:18:32.153Z,4.77
2022-11-30T19:20:58.765Z,4.80
2022-11-30T19:23:25.658Z,4.84
2022-11-30T19:25:52.581Z,4.83
2022-11-30T19:28:19.454Z,4.81
2022-11-30T19:30:46.105Z,4.79
2022-11-30T19:33:14.188Z,4.74
2022-11-30T19:35:40.809Z,4.73
2022-11-30T19:38:07.285Z,4.68
2022-11-30T19:40:33.806Z,4.60
2022-11-30T19:43:00.206Z,4.52
2022-11-30T19:45:26.666Z,4.47
2022-11-30T19:47:53.163Z,4.49
2022-11-30T19:50:19.727Z,4.42
2022-11-30T19:52:46.201Z,4.38
2022-11-30T19:55:12.784Z,4.30
2022-11-30T19:57:39.518Z,4.31
2022-11-30T20:00:07.271Z,4.28
2022-11-30T20:02:34.389Z,4.26
2022-11-30T20:05:00.967Z,4.22
2022-11-30T20:07:28.045Z,4.24
2022-11-30T20:09:54.545Z,4.21
2022-11-30T20:12:21.154Z,4.18
2022-11-30T20:14:50.895Z,4.14
2022-11-30T20:17:17.430Z,4.10
2022-11-30T20:19:43.886Z,4.05
2022-11-30T20:22:10.389Z,4.01
2022-11-30T20:24:36.816Z,4.02
2022-11-30T20:27:06.447Z,4.04
2022-11-30T20:29:33.068Z,4.05
2022-11-30T20:31:59.576Z,4.05
2022-11-30T20:34:31.128Z,4.10
2022-11-30T20:37:00.502Z,4.19
2022-11-30T20:39:26.981Z,4.26
2022-11-30T20:41:53.496Z,4.38
2022-11-30T20:44:20.053Z,4.45
2022-11-30T20:46:46.561Z,4.52
2022-11-30T20:49:18.768Z,4.55
2022-11-30T20:51:46.854Z,4.60
2022-11-30T20:54:14.425Z,4.65
2022-11-30T20:56:41.476Z,4.67
2022-11-30T20:59:16.737Z,4.69
2022-11-30T21:01:45.547Z,4.75
2022-11-30T21:04:12.152Z,4.77
2022-11-30T21:06:39.305Z,4.81
2022-11-30T21:09:05.733Z,4.85
2022-11-30T21:11:32.270Z,4.85
2022-11-30T21:13:59.043Z,4.85
2022-11-30T21:16:29.086Z,4.84
2022-11-30T21:18:58.676Z,4.88
2022-11-30T21:21:28.716Z,4.86
2022-11-30T21:23:57.588Z,4.84
2022-11-30T21:26:27.300Z,4.85
2022-11-30T21:28:55.891Z,4.84
2022-11-30T21:31:23.273Z,4.84
2022-11-30T21:33:53.151Z,4.84
2022-11-30T21:36:21.969Z,4.82
2022-11-30T21:38:52.435Z,4.87
2022-11-30T21:41:18.867Z,4.84
2022-11-30T21:43:45.326Z,4.83
2022-11-30T21:46:14.372Z,4.85
2022-11-30T21:48:44.520Z,4.87
2022-11-30T21:51:22.453Z,4.83
2022-11-30T21:53:52.202Z,4.80
2022-11-30T21:56:21.731Z,4.81
2022-11-30T21:58:49.830Z,4.78
2022-11-30T22:01:22.412Z,4.77
2022-11-30T22:03:49.333Z,4.71
2022-11-30T22:06:18.303Z,4.75
2022-11-30T22:08:45.628Z,4.74
2022-11-30T22:11:15.138Z,4.75
2022-11-30T22:13:42.161Z,4.77
2022-11-30T22:16:13.751Z,4.77
2022-11-30T22:18:41.357Z,4.80
2022-11-30T22:21:09.561Z,4.82
2022-11-30T22:23:41.466Z,4.83
2022-11-30T22:26:12.637Z,4.79
2022-11-30T22:28:40.596Z,4.72
2022-11-30T22:31:09.572Z,4.72
2022-11-30T22:33:38.126Z,4.70
2022-11-30T22:36:06.534Z,4.68
2022-11-30T22:38:33.296Z,4.67
2022-11-30T22:41:07.713Z,4.63
2022-11-30T22:43:34.944Z,4.57
2022-11-30T22:46:19.168Z,4.51
2022-11-30T22:48:46.726Z,4.45
2022-11-30T22:51:16.435Z,4.40
2022-11-30T22:53:42.957Z,4.33
2022-11-30T22:56:15.306Z,4.27
2022-11-30T22:58:43.329Z,4.25
2022-11-30T23:01:14.136Z,4.25
2022-11-30T23:03:42.022Z,4.24
2022-11-30T23:06:09.624Z,4.24
2022-11-30T23:08:37.025Z,4.20
2022-11-30T23:11:06.340Z,4.19
2022-11-30T23:13:33.331Z,4.19
2022-11-30T23:16:00.190Z,4.17
2022-11-30T23:18:28.295Z,4.16
2022-11-30T23:20:55.588Z,4.20
2022-11-30T23:23:23.372Z,4.26
2022-11-30T23:25:50.594Z,4.27
2022-11-30T23:28:17.266Z,4.32
2022-11-30T23:30:43.771Z,4.31
2022-11-30T23:33:10.459Z,4.35
2022-11-30T23:35:41.985Z,4.39
2022-11-30T23:38:08.453Z,4.38
2022-11-30T23:40:34.921Z,4.39
2022-11-30T23:43:01.380Z,4.47
2022-11-30T23:45:27.912Z,4.47
2022-11-30T23:47:54.420Z,4.50
2022-11-30T23:50:20.914Z,4.55
2022-11-30T23:52:47.359Z,4.60
2022-11-30T23:55:13.861Z,4.65
2022-11-30T23:57:40.297Z,4.71
